FW6376 Weather Reports


Display with metric or nautical units.
time (UTC)temp
F
wind
direction
speed
MPH
gust
MPH
rain 1hr
in
rain 24hr
in
rain mn
in
humidity
%
barometer
mb
20210923034547 65 67 0.0 1.0 0.01 0.08 0.08 89 1026.9
20210923033114 65 67 0.0 2.0 0.01 0.08 0.08 89 1027.0
20210923031656 65 67 0.0 1.0 0.01 0.08 0.08 89 1026.9
20210923030050 65 67 0.0 2.0 0.00 0.07 0.07 89 1026.9
20210923024556 65 67 0.0 0.0 0.00 0.07 0.07 88 1027.0
20210923023055 66 67 0.0 0.0 0.00 0.07 0.07 88 1026.8
20210923021536 66 67 0.0 1.0 0.00 0.07 0.07 88 1026.8
20210923020036 67 67 0.0 0.0 0.00 0.07 0.07 88 1026.9
20210923014622 67 67 0.0 4.0 0.00 0.07 0.07 87 1027.1
20210923013153 67 50 3.0 9.0 0.00 0.07 0.07 88 1027.0
20210923011610 66 39 3.0 9.0 0.00 0.07 0.07 89 1027.1
20210923010034 65 84 0.0 1.0 0.00 0.07 0.07 89 1026.8
20210923004539 65 84 0.0 2.0 0.00 0.07 0.07 89 1026.9
20210923003032 65 84 0.0 5.0 0.00 0.07 0.07 88 1026.7
20210923001550 65 63 0.0 1.0 0.00 0.07 0.07 89 1026.9
20210923000057 66 63 0.0 0.0 0.00 0.07 0.07 88 1026.8
20210922234630 66 63 0.0 1.0 0.00 0.07 0.07 88 1026.5
20210922233118 66 63 0.0 1.0 0.00 0.07 0.07 88 1026.4
20210922231555 67 63 0.0 3.0 0.00 0.07 0.07 87 1026.4
20210922230040 68 88 0.0 1.0 0.00 0.07 0.07 86 1026.4
20210922224631 69 88 0.0 1.0 0.00 0.07 0.07 85 1026.5
20210922223036 70 90 1.0 9.0 0.00 0.07 0.07 85 1026.5
20210922221529 71 49 1.0 4.0 0.00 0.07 0.07 83 1026.4
20210922220055 71 95 1.0 4.0 0.00 0.07 0.07 83 1026.3
20210922214539 72 91 0.0 5.0 0.00 0.07 0.07 82 1026.3
20210922213027 72 130 1.0 7.0 0.00 0.07 0.07 83 1026.1
20210922211531 72 321 1.0 4.0 0.00 0.07 0.07 82 1026.3
20210922210046 72 85 0.0 7.0 0.00 0.07 0.07 82 1026.3
20210922204531 73 51 2.0 5.0 0.00 0.07 0.07 81 1026.4
20210922203035 74 51 2.0 9.0 0.00 0.07 0.07 79 1026.4
20210922201545 74 80 1.0 3.0 0.00 0.07 0.07 80 1026.5
20210922200050 74 141 0.0 7.0 0.00 0.07 0.07 79 1026.7
20210922194602 75 115 1.0 9.0 0.00 0.07 0.07 78 1026.7
20210922193035 76 53 3.0 9.0 0.00 0.07 0.07 77 1026.8
20210922191515 74 190 1.0 7.0 0.00 0.07 0.07 80 1027.0
20210922190036 72 259 1.0 4.0 0.00 0.07 0.07 84 1027.3
20210922184506 72 32 2.0 6.0 0.00 0.07 0.07 83 1027.5
20210922183006 71 29 2.0 6.0 0.00 0.07 0.07 85 1027.8
20210922181504 71 184 0.0 2.0 0.00 0.07 0.07 87 1027.9
20210922180124 71 184 0.0 1.0 0.00 0.07 0.07 87 1028.1
20210922174648 70 184 0.0 2.0 0.00 0.07 0.07 87 1028.4
20210922173132 70 184 0.0 2.0 0.00 0.07 0.07 86 1028.5
20210922171642 71 184 0.0 2.0 0.00 0.07 0.07 85 1028.7
20210922170109 72 184 0.0 3.0 0.00 0.07 0.07 85 1028.8
20210922164640 71 92 0.0 0.0 0.00 0.07 0.07 87 1028.9
20210922163146 69 86 0.0 0.0 0.00 0.07 0.07 88 1029.2
20210922161607 68 86 0.0 0.0 0.00 0.07 0.07 88 1029.5
20210922160113 67 210 0.0 2.0 0.00 0.07 0.07 87 1029.7
20210922154630 68 211 0.0 1.0 0.01 0.07 0.07 87 1029.9
20210922153049 67 211 0.0 4.0 0.01 0.07 0.07 86 1030.2
20210922151622 67 192 0.0 3.0 0.01 0.07 0.07 86 1030.3
20210922150050 67 249 0.0 3.0 0.01 0.07 0.07 88 1030.5
20210922144557 66 281 1.0 2.0 0.00 0.06 0.06 89 1030.8
20210922143031 65 295 0.0 2.0 0.00 0.06 0.06 89 1030.9
20210922141522 64 295 0.0 1.0 0.00 0.06 0.06 90 1031.1
20210922140019 63 294 0.0 2.0 0.00 0.06 0.06 90 1031.1
20210922134535 62 324 0.0 2.0 0.00 0.06 0.06 90 1031.2
20210922133043 61 324 0.0 0.0 0.00 0.06 0.06 90 1031.3
20210922131523 60 324 0.0 0.0 0.00 0.06 0.06 90 1031.4
20210922130005 60 324 0.0 0.0 0.00 0.06 0.06 90 1031.6
20210922124502 59 324 0.0 0.0 0.00 0.06 0.06 90 1031.6
20210922123114 58 324 0.0 0.0 0.00 0.06 0.06 90 1031.7
20210922121723 58 324 0.0 0.0 0.00 0.06 0.06 90 1031.9
20210922120056 57 324 0.0 0.0 0.01 0.06 0.06 90 1031.9
20210922113115 57 324 0.0 0.0 0.03 0.06 0.06 89 1032.1
20210922111548 57 324 0.0 0.0 0.05 0.06 0.06 89 1032.1
20210922110159 56 324 0.0 0.0 0.04 0.05 0.05 89 1032.1
20210922104550 56 324 0.0 0.0 0.04 0.04 0.04 89 1032.1
20210922103100 56 324 0.0 0.0 0.03 0.03 0.03 89 1032.0
20210922101705 56 324 0.0 0.0 0.01 0.01 0.01 89 1032.1
20210922100116 56 324 0.0 0.0 0.01 0.01 0.01 89 1032.1
20210922094618 56 324 0.0 0.0 0.00 0.00 0.00 89 1032.2
20210922093043 56 324 0.0 0.0 0.00 0.00 0.00 90 1032.2
20210922091554 55 324 0.0 0.0 0.00 0.00 0.00 89 1032.4
20210922090058 55 324 0.0 0.0 0.00 0.00 0.00 89 1032.4
20210922084603 55 324 0.0 0.0 0.00 0.00 0.00 89 1032.6
20210922083058 55 324 0.0 0.0 0.00 0.00 0.00 89 1032.7
20210922081533 54 324 0.0 0.0 0.00 0.00 0.00 89 1032.7
20210922080045 54 324 0.0 0.0 0.00 0.00 0.00 89 1032.9
20210922074533 54 324 0.0 0.0 0.00 0.00 0.00 90 1033.1
20210922073032 53 324 0.0 0.0 0.00 0.00 0.00 89 1033.2
20210922071603 53 324 0.0 0.0 0.00 0.00 0.00 89 1033.3
20210922070031 53 324 0.0 0.0 0.00 0.00 0.00 89 1033.5
20210922064522 52 324 0.0 0.0 0.00 0.00 0.00 89 1033.6
20210922063032 52 324 0.0 0.0 0.00 0.00 0.00 89 1033.6
20210922061554 51 324 0.0 0.0 0.00 0.00 0.00 89 1033.8
20210922060017 51 324 0.0 0.0 0.00 0.00 0.00 88 1034.2
20210922054535 51 324 0.0 0.0 0.00 0.00 0.00 88 1034.1
20210922053015 52 324 0.0 0.0 0.00 0.00 0.00 88 1034.3
20210922051513 52 324 0.0 0.0 0.00 0.00 0.00 88 1034.4
20210922050018 52 324 0.0 0.0 0.00 0.00 0.00 88 1034.6
20210922044528 52 324 0.0 0.0 0.00 0.00 0.00 88 1034.8
20210922043033 52 324 0.0 0.0 0.00 0.00 0.00 88 1034.8
20210922041505 53 324 0.0 0.0 0.00 0.00 0.00 88 1034.9
20210922040003 53 324 0.0 0.0 0.00 0.00 0.00 88 1034.9